sensor_id;sensor_type;location;lat;lon;timestamp;P1;durP1;ratioP1;P2;durP2;ratioP2
71351;SDS011;59159;51.652;4.864;2022-10-18T00:02:14;5.85;;;2.53;;
71351;SDS011;59159;51.652;4.864;2022-10-18T00:04:40;6.40;;;2.70;;
71351;SDS011;59159;51.652;4.864;2022-10-18T00:07:06;5.95;;;2.83;;
71351;SDS011;59159;51.652;4.864;2022-10-18T00:09:32;6.75;;;2.60;;
71351;SDS011;59159;51.652;4.864;2022-10-18T00:11:58;8.80;;;3.10;;
71351;SDS011;59159;51.652;4.864;2022-10-18T00:14:24;6.37;;;3.30;;
71351;SDS011;59159;51.652;4.864;2022-10-18T00:16:50;6.15;;;2.45;;
71351;SDS011;59159;51.652;4.864;2022-10-18T00:19:16;7.18;;;2.90;;
71351;SDS011;59159;51.652;4.864;2022-10-18T00:21:42;5.60;;;2.50;;
71351;SDS011;59159;51.652;4.864;2022-10-18T00:24:08;5.60;;;2.58;;
71351;SDS011;59159;51.652;4.864;2022-10-18T00:26:34;6.70;;;2.92;;
71351;SDS011;59159;51.652;4.864;2022-10-18T00:29:02;5.83;;;2.50;;
71351;SDS011;59159;51.652;4.864;2022-10-18T00:31:30;7.00;;;2.83;;
71351;SDS011;59159;51.652;4.864;2022-10-18T00:33:57;7.43;;;2.50;;
71351;SDS011;59159;51.652;4.864;2022-10-18T00:36:23;6.70;;;2.97;;
71351;SDS011;59159;51.652;4.864;2022-10-18T00:38:50;7.60;;;3.27;;
71351;SDS011;59159;51.652;4.864;2022-10-18T00:41:17;6.57;;;2.80;;
71351;SDS011;59159;51.652;4.864;2022-10-18T00:46:32;6.60;;;2.87;;
71351;SDS011;59159;51.652;4.864;2022-10-18T00:48:59;6.88;;;2.65;;
71351;SDS011;59159;51.652;4.864;2022-10-18T00:51:27;5.78;;;2.72;;
71351;SDS011;59159;51.652;4.864;2022-10-18T00:53:54;6.00;;;2.70;;
71351;SDS011;59159;51.652;4.864;2022-10-18T00:56:20;6.55;;;3.22;;
71351;SDS011;59159;51.652;4.864;2022-10-18T00:58:47;6.70;;;2.78;;
71351;SDS011;59159;51.652;4.864;2022-10-18T01:01:13;5.65;;;2.50;;
71351;SDS011;59159;51.652;4.864;2022-10-18T01:03:40;6.03;;;2.83;;
71351;SDS011;59159;51.652;4.864;2022-10-18T01:06:06;6.68;;;3.00;;
71351;SDS011;59159;51.652;4.864;2022-10-18T01:08:43;7.72;;;2.50;;
71351;SDS011;59159;51.652;4.864;2022-10-18T01:19:01;6.90;;;3.00;;
71351;SDS011;59159;51.652;4.864;2022-10-18T01:32:09;6.00;;;2.90;;
71351;SDS011;59159;51.652;4.864;2022-10-18T01:34:37;7.07;;;2.55;;
71351;SDS011;59159;51.652;4.864;2022-10-18T01:37:05;5.60;;;2.53;;
71351;SDS011;59159;51.652;4.864;2022-10-18T01:39:35;6.68;;;2.60;;
71351;SDS011;59159;51.652;4.864;2022-10-18T01:42:02;6.22;;;2.38;;
71351;SDS011;59159;51.652;4.864;2022-10-18T01:44:30;6.13;;;2.90;;
71351;SDS011;59159;51.652;4.864;2022-10-18T01:46:57;6.60;;;2.80;;
71351;SDS011;59159;51.652;4.864;2022-10-18T01:49:24;6.88;;;2.85;;
71351;SDS011;59159;51.652;4.864;2022-10-18T01:51:51;7.47;;;3.10;;
71351;SDS011;59159;51.652;4.864;2022-10-18T01:54:18;7.27;;;2.87;;
71351;SDS011;59159;51.652;4.864;2022-10-18T01:56:49;7.38;;;2.85;;
71351;SDS011;59159;51.652;4.864;2022-10-18T02:02:13;5.93;;;2.50;;
71351;SDS011;59159;51.652;4.864;2022-10-18T02:09:56;7.07;;;2.40;;
71351;SDS011;59159;51.652;4.864;2022-10-18T02:12:24;7.15;;;2.75;;
71351;SDS011;59159;51.652;4.864;2022-10-18T02:14:50;6.10;;;2.55;;
71351;SDS011;59159;51.652;4.864;2022-10-18T02:17:16;6.80;;;2.88;;
71351;SDS011;59159;51.652;4.864;2022-10-18T02:19:45;6.37;;;2.30;;
71351;SDS011;59159;51.652;4.864;2022-10-18T02:22:12;5.70;;;2.45;;
71351;SDS011;59159;51.652;4.864;2022-10-18T02:24:43;6.00;;;2.80;;
71351;SDS011;59159;51.652;4.864;2022-10-18T02:27:11;6.80;;;3.00;;
71351;SDS011;59159;51.652;4.864;2022-10-18T02:29:37;7.28;;;2.80;;
71351;SDS011;59159;51.652;4.864;2022-10-18T02:34:57;6.70;;;3.00;;
71351;SDS011;59159;51.652;4.864;2022-10-18T02:37:24;6.95;;;2.63;;
71351;SDS011;59159;51.652;4.864;2022-10-18T02:39:52;5.82;;;2.40;;
71351;SDS011;59159;51.652;4.864;2022-10-18T02:42:18;6.30;;;2.40;;
71351;SDS011;59159;51.652;4.864;2022-10-18T02:44:44;6.03;;;2.50;;
71351;SDS011;59159;51.652;4.864;2022-10-18T02:47:10;5.82;;;2.42;;
71351;SDS011;59159;51.652;4.864;2022-10-18T02:49:36;5.60;;;2.38;;
71351;SDS011;59159;51.652;4.864;2022-10-18T02:52:02;6.70;;;2.40;;
71351;SDS011;59159;51.652;4.864;2022-10-18T02:54:28;5.70;;;2.70;;
71351;SDS011;59159;51.652;4.864;2022-10-18T02:56:54;6.75;;;2.30;;
71351;SDS011;59159;51.652;4.864;2022-10-18T02:59:20;6.73;;;2.43;;
71351;SDS011;59159;51.652;4.864;2022-10-18T03:01:46;6.05;;;2.42;;
71351;SDS011;59159;51.652;4.864;2022-10-18T03:04:12;5.57;;;2.50;;
71351;SDS011;59159;51.652;4.864;2022-10-18T03:06:38;5.22;;;2.30;;
71351;SDS011;59159;51.652;4.864;2022-10-18T03:09:04;6.37;;;2.60;;
71351;SDS011;59159;51.652;4.864;2022-10-18T03:11:31;8.52;;;2.80;;
71351;SDS011;59159;51.652;4.864;2022-10-18T03:13:57;7.20;;;2.45;;
71351;SDS011;59159;51.652;4.864;2022-10-18T03:16:23;9.93;;;2.33;;
71351;SDS011;59159;51.652;4.864;2022-10-18T03:18:49;5.95;;;2.85;;
71351;SDS011;59159;51.652;4.864;2022-10-18T03:21:15;7.13;;;2.60;;
71351;SDS011;59159;51.652;4.864;2022-10-18T03:23:41;6.90;;;2.40;;
71351;SDS011;59159;51.652;4.864;2022-10-18T03:26:07;6.88;;;2.53;;
71351;SDS011;59159;51.652;4.864;2022-10-18T03:28:33;6.68;;;2.85;;
71351;SDS011;59159;51.652;4.864;2022-10-18T03:31:00;6.05;;;2.40;;
71351;SDS011;59159;51.652;4.864;2022-10-18T03:33:26;5.63;;;2.53;;
71351;SDS011;59159;51.652;4.864;2022-10-18T03:35:52;5.68;;;2.70;;
71351;SDS011;59159;51.652;4.864;2022-10-18T03:38:18;5.45;;;2.30;;
71351;SDS011;59159;51.652;4.864;2022-10-18T03:40:44;7.97;;;2.40;;
71351;SDS011;59159;51.652;4.864;2022-10-18T03:43:10;6.05;;;2.53;;
71351;SDS011;59159;51.652;4.864;2022-10-18T03:45:36;5.97;;;2.38;;
71351;SDS011;59159;51.652;4.864;2022-10-18T03:48:02;5.87;;;2.43;;
71351;SDS011;59159;51.652;4.864;2022-10-18T03:50:28;6.85;;;2.60;;
71351;SDS011;59159;51.652;4.864;2022-10-18T03:52:54;5.82;;;2.20;;
71351;SDS011;59159;51.652;4.864;2022-10-18T03:55:20;6.88;;;2.58;;
71351;SDS011;59159;51.652;4.864;2022-10-18T03:57:46;6.20;;;2.77;;
71351;SDS011;59159;51.652;4.864;2022-10-18T04:00:12;8.20;;;3.30;;
71351;SDS011;59159;51.652;4.864;2022-10-18T04:02:38;7.47;;;3.20;;
71351;SDS011;59159;51.652;4.864;2022-10-18T04:05:05;7.27;;;2.97;;
71351;SDS011;59159;51.652;4.864;2022-10-18T04:07:33;6.75;;;2.75;;
71351;SDS011;59159;51.652;4.864;2022-10-18T04:09:59;6.00;;;2.78;;
71351;SDS011;59159;51.652;4.864;2022-10-18T04:12:25;5.70;;;2.30;;
71351;SDS011;59159;51.652;4.864;2022-10-18T04:14:51;6.80;;;2.35;;
71351;SDS011;59159;51.652;4.864;2022-10-18T04:17:17;6.55;;;2.80;;
71351;SDS011;59159;51.652;4.864;2022-10-18T04:19:43;6.38;;;2.42;;
71351;SDS011;59159;51.652;4.864;2022-10-18T04:22:09;5.63;;;2.47;;
71351;SDS011;59159;51.652;4.864;2022-10-18T04:24:38;7.10;;;2.70;;
71351;SDS011;59159;51.652;4.864;2022-10-18T04:27:04;8.27;;;2.40;;
71351;SDS011;59159;51.652;4.864;2022-10-18T04:29:31;5.70;;;2.23;;
71351;SDS011;59159;51.652;4.864;2022-10-18T04:31:57;6.22;;;2.42;;
71351;SDS011;59159;51.652;4.864;2022-10-18T04:34:23;5.60;;;2.38;;
71351;SDS011;59159;51.652;4.864;2022-10-18T04:36:49;6.80;;;2.67;;
71351;SDS011;59159;51.652;4.864;2022-10-18T04:39:15;5.90;;;2.20;;
71351;SDS011;59159;51.652;4.864;2022-10-18T04:41:41;7.38;;;2.25;;
71351;SDS011;59159;51.652;4.864;2022-10-18T04:44:07;7.03;;;2.22;;
71351;SDS011;59159;51.652;4.864;2022-10-18T04:46:33;5.50;;;2.10;;
71351;SDS011;59159;51.652;4.864;2022-10-18T04:48:59;5.97;;;2.47;;
71351;SDS011;59159;51.652;4.864;2022-10-18T04:51:28;6.03;;;2.40;;
71351;SDS011;59159;51.652;4.864;2022-10-18T04:53:55;6.43;;;2.23;;
71351;SDS011;59159;51.652;4.864;2022-10-18T04:56:21;5.85;;;2.40;;
71351;SDS011;59159;51.652;4.864;2022-10-18T04:58:47;5.60;;;2.05;;
71351;SDS011;59159;51.652;4.864;2022-10-18T05:01:13;5.77;;;1.97;;
71351;SDS011;59159;51.652;4.864;2022-10-18T05:03:41;4.93;;;1.98;;
71351;SDS011;59159;51.652;4.864;2022-10-18T05:06:07;6.45;;;2.50;;
71351;SDS011;59159;51.652;4.864;2022-10-18T05:08:33;5.80;;;2.10;;
71351;SDS011;59159;51.652;4.864;2022-10-18T05:11:00;7.40;;;2.50;;
71351;SDS011;59159;51.652;4.864;2022-10-18T05:13:26;6.75;;;2.28;;
71351;SDS011;59159;51.652;4.864;2022-10-18T05:15:52;5.80;;;1.80;;
71351;SDS011;59159;51.652;4.864;2022-10-18T05:18:18;5.67;;;1.97;;
71351;SDS011;59159;51.652;4.864;2022-10-18T05:20:44;5.68;;;2.10;;
71351;SDS011;59159;51.652;4.864;2022-10-18T05:23:10;5.38;;;2.10;;
71351;SDS011;59159;51.652;4.864;2022-10-18T05:25:40;5.67;;;2.10;;
71351;SDS011;59159;51.652;4.864;2022-10-18T05:28:06;5.40;;;2.40;;
71351;SDS011;59159;51.652;4.864;2022-10-18T05:30:32;8.05;;;2.08;;
71351;SDS011;59159;51.652;4.864;2022-10-18T05:32:58;6.07;;;2.28;;
71351;SDS011;59159;51.652;4.864;2022-10-18T05:35:24;7.00;;;1.93;;
71351;SDS011;59159;51.652;4.864;2022-10-18T05:37:50;5.28;;;2.15;;
71351;SDS011;59159;51.652;4.864;2022-10-18T05:40:16;5.70;;;2.17;;
71351;SDS011;59159;51.652;4.864;2022-10-18T05:42:42;4.93;;;2.23;;
71351;SDS011;59159;51.652;4.864;2022-10-18T05:45:08;5.60;;;1.98;;
71351;SDS011;59159;51.652;4.864;2022-10-18T05:47:34;6.03;;;2.10;;
71351;SDS011;59159;51.652;4.864;2022-10-18T05:50:00;6.50;;;2.27;;
71351;SDS011;59159;51.652;4.864;2022-10-18T05:52:26;5.55;;;2.08;;
71351;SDS011;59159;51.652;4.864;2022-10-18T05:54:52;5.93;;;2.10;;
71351;SDS011;59159;51.652;4.864;2022-10-18T05:57:18;6.47;;;2.25;;
71351;SDS011;59159;51.652;4.864;2022-10-18T05:59:44;6.17;;;2.17;;
71351;SDS011;59159;51.652;4.864;2022-10-18T06:02:10;5.88;;;2.20;;
71351;SDS011;59159;51.652;4.864;2022-10-18T06:04:37;5.28;;;2.00;;
71351;SDS011;59159;51.652;4.864;2022-10-18T06:07:06;6.80;;;2.37;;
71351;SDS011;59159;51.652;4.864;2022-10-18T06:09:33;5.55;;;2.20;;
71351;SDS011;59159;51.652;4.864;2022-10-18T06:11:59;5.63;;;2.10;;
71351;SDS011;59159;51.652;4.864;2022-10-18T06:14:25;4.83;;;1.93;;
71351;SDS011;59159;51.652;4.864;2022-10-18T06:16:51;5.38;;;1.95;;
71351;SDS011;59159;51.652;4.864;2022-10-18T06:19:17;5.50;;;1.83;;
71351;SDS011;59159;51.652;4.864;2022-10-18T06:21:43;6.88;;;1.98;;
71351;SDS011;59159;51.652;4.864;2022-10-18T06:24:09;5.70;;;2.10;;
71351;SDS011;59159;51.652;4.864;2022-10-18T06:26:35;5.55;;;2.13;;
71351;SDS011;59159;51.652;4.864;2022-10-18T06:29:01;6.53;;;1.92;;
71351;SDS011;59159;51.652;4.864;2022-10-18T06:31:27;6.60;;;2.40;;
71351;SDS011;59159;51.652;4.864;2022-10-18T06:33:54;6.10;;;2.00;;
71351;SDS011;59159;51.652;4.864;2022-10-18T06:36:22;7.05;;;2.10;;
71351;SDS011;59159;51.652;4.864;2022-10-18T06:38:48;4.93;;;1.87;;
71351;SDS011;59159;51.652;4.864;2022-10-18T06:41:14;5.15;;;1.88;;
71351;SDS011;59159;51.652;4.864;2022-10-18T06:43:41;4.80;;;1.70;;
71351;SDS011;59159;51.652;4.864;2022-10-18T06:46:08;5.18;;;1.92;;
71351;SDS011;59159;51.652;4.864;2022-10-18T06:48:34;5.13;;;1.73;;
71351;SDS011;59159;51.652;4.864;2022-10-18T06:51:02;5.60;;;2.20;;
71351;SDS011;59159;51.652;4.864;2022-10-18T06:53:30;5.53;;;1.90;;
71351;SDS011;59159;51.652;4.864;2022-10-18T06:56:00;4.97;;;2.00;;
71351;SDS011;59159;51.652;4.864;2022-10-18T06:58:26;6.20;;;1.60;;
71351;SDS011;59159;51.652;4.864;2022-10-18T07:00:53;4.63;;;1.60;;
71351;SDS011;59159;51.652;4.864;2022-10-18T07:03:19;4.87;;;1.90;;
71351;SDS011;59159;51.652;4.864;2022-10-18T07:05:48;5.15;;;2.20;;
71351;SDS011;59159;51.652;4.864;2022-10-18T07:08:14;4.82;;;1.80;;
71351;SDS011;59159;51.652;4.864;2022-10-18T07:10:40;5.72;;;1.70;;
71351;SDS011;59159;51.652;4.864;2022-10-18T07:13:06;5.00;;;1.80;;
71351;SDS011;59159;51.652;4.864;2022-10-18T07:15:32;4.65;;;1.52;;
71351;SDS011;59159;51.652;4.864;2022-10-18T07:18:02;4.63;;;1.67;;
71351;SDS011;59159;51.652;4.864;2022-10-18T07:20:28;4.80;;;1.90;;
71351;SDS011;59159;51.652;4.864;2022-10-18T07:22:57;5.10;;;1.95;;
71351;SDS011;59159;51.652;4.864;2022-10-18T07:25:23;4.03;;;1.38;;
71351;SDS011;59159;51.652;4.864;2022-10-18T07:27:49;4.90;;;1.50;;
71351;SDS011;59159;51.652;4.864;2022-10-18T07:30:15;4.40;;;1.40;;
71351;SDS011;59159;51.652;4.864;2022-10-18T07:32:41;4.97;;;1.60;;
71351;SDS011;59159;51.652;4.864;2022-10-18T07:35:07;3.90;;;1.33;;
71351;SDS011;59159;51.652;4.864;2022-10-18T07:37:33;4.77;;;1.60;;
71351;SDS011;59159;51.652;4.864;2022-10-18T07:39:59;5.50;;;1.77;;
71351;SDS011;59159;51.652;4.864;2022-10-18T07:42:25;3.88;;;1.20;;
71351;SDS011;59159;51.652;4.864;2022-10-18T07:44:51;5.13;;;1.50;;
71351;SDS011;59159;51.652;4.864;2022-10-18T07:47:17;4.88;;;1.77;;
71351;SDS011;59159;51.652;4.864;2022-10-18T07:49:43;4.82;;;1.55;;
71351;SDS011;59159;51.652;4.864;2022-10-18T07:52:09;4.73;;;1.67;;
71351;SDS011;59159;51.652;4.864;2022-10-18T07:54:36;4.50;;;1.40;;
71351;SDS011;59159;51.652;4.864;2022-10-18T07:57:02;4.60;;;1.20;;
71351;SDS011;59159;51.652;4.864;2022-10-18T07:59:28;3.90;;;1.42;;
71351;SDS011;59159;51.652;4.864;2022-10-18T08:01:54;4.73;;;1.43;;
71351;SDS011;59159;51.652;4.864;2022-10-18T08:04:20;5.30;;;1.70;;
71351;SDS011;59159;51.652;4.864;2022-10-18T08:06:46;4.85;;;1.77;;
71351;SDS011;59159;51.652;4.864;2022-10-18T08:09:12;5.37;;;1.30;;
71351;SDS011;59159;51.652;4.864;2022-10-18T08:11:38;4.40;;;1.40;;
71351;SDS011;59159;51.652;4.864;2022-10-18T08:14:04;4.50;;;1.55;;
71351;SDS011;59159;51.652;4.864;2022-10-18T08:16:30;4.10;;;1.40;;
71351;SDS011;59159;51.652;4.864;2022-10-18T08:18:56;4.20;;;1.30;;
71351;SDS011;59159;51.652;4.864;2022-10-18T08:21:23;4.45;;;1.50;;
71351;SDS011;59159;51.652;4.864;2022-10-18T08:23:49;4.03;;;1.20;;
71351;SDS011;59159;51.652;4.864;2022-10-18T08:26:17;4.50;;;1.40;;
71351;SDS011;59159;51.652;4.864;2022-10-18T08:28:43;5.10;;;1.52;;
71351;SDS011;59159;51.652;4.864;2022-10-18T08:31:11;4.78;;;1.90;;
71351;SDS011;59159;51.652;4.864;2022-10-18T08:33:37;4.50;;;1.50;;
71351;SDS011;59159;51.652;4.864;2022-10-18T08:36:05;5.30;;;1.58;;
71351;SDS011;59159;51.652;4.864;2022-10-18T08:38:31;4.35;;;1.48;;
71351;SDS011;59159;51.652;4.864;2022-10-18T08:41:16;5.23;;;1.70;;
71351;SDS011;59159;51.652;4.864;2022-10-18T08:43:55;5.15;;;1.60;;
71351;SDS011;59159;51.652;4.864;2022-10-18T08:46:23;4.72;;;1.30;;
71351;SDS011;59159;51.652;4.864;2022-10-18T08:48:49;6.43;;;1.80;;
71351;SDS011;59159;51.652;4.864;2022-10-18T08:51:30;5.23;;;1.30;;
71351;SDS011;59159;51.652;4.864;2022-10-18T08:56:23;5.25;;;1.55;;
71351;SDS011;59159;51.652;4.864;2022-10-18T08:58:50;4.60;;;1.40;;
71351;SDS011;59159;51.652;4.864;2022-10-18T09:06:15;5.53;;;1.60;;
71351;SDS011;59159;51.652;4.864;2022-10-18T09:11:33;5.32;;;1.90;;
71351;SDS011;59159;51.652;4.864;2022-10-18T09:21:39;6.55;;;2.03;;
71351;SDS011;59159;51.652;4.864;2022-10-18T09:26:40;4.18;;;1.30;;
71351;SDS011;59159;51.652;4.864;2022-10-18T09:34:28;5.03;;;1.20;;
71351;SDS011;59159;51.652;4.864;2022-10-18T09:36:55;4.40;;;1.45;;
71351;SDS011;59159;51.652;4.864;2022-10-18T09:39:22;4.32;;;1.30;;
71351;SDS011;59159;51.652;4.864;2022-10-18T09:41:52;6.27;;;1.60;;
71351;SDS011;59159;51.652;4.864;2022-10-18T09:44:21;4.70;;;1.42;;
71351;SDS011;59159;51.652;4.864;2022-10-18T09:46:48;5.75;;;1.50;;
71351;SDS011;59159;51.652;4.864;2022-10-18T09:51:41;5.60;;;1.40;;
71351;SDS011;59159;51.652;4.864;2022-10-18T09:54:19;5.07;;;1.73;;
71351;SDS011;59159;51.652;4.864;2022-10-18T09:59:27;6.53;;;1.40;;
71351;SDS011;59159;51.652;4.864;2022-10-18T10:01:54;6.80;;;1.30;;
71351;SDS011;59159;51.652;4.864;2022-10-18T10:04:20;5.43;;;1.40;;
71351;SDS011;59159;51.652;4.864;2022-10-18T10:06:50;5.03;;;1.43;;
71351;SDS011;59159;51.652;4.864;2022-10-18T10:09:16;4.35;;;1.40;;
71351;SDS011;59159;51.652;4.864;2022-10-18T10:14:16;5.20;;;1.53;;
71351;SDS011;59159;51.652;4.864;2022-10-18T10:22:05;4.47;;;1.30;;
71351;SDS011;59159;51.652;4.864;2022-10-18T10:24:33;4.95;;;1.50;;
71351;SDS011;59159;51.652;4.864;2022-10-18T10:27:00;5.10;;;1.30;;
71351;SDS011;59159;51.652;4.864;2022-10-18T10:32:09;4.90;;;1.30;;
71351;SDS011;59159;51.652;4.864;2022-10-18T10:34:37;3.85;;;1.10;;
71351;SDS011;59159;51.652;4.864;2022-10-18T10:37:08;4.72;;;1.25;;
71351;SDS011;59159;51.652;4.864;2022-10-18T10:39:50;6.13;;;1.27;;
71351;SDS011;59159;51.652;4.864;2022-10-18T10:42:28;4.03;;;1.10;;
71351;SDS011;59159;51.652;4.864;2022-10-18T10:44:54;6.07;;;1.20;;
71351;SDS011;59159;51.652;4.864;2022-10-18T10:47:30;3.90;;;1.10;;
71351;SDS011;59159;51.652;4.864;2022-10-18T10:49:57;5.78;;;1.20;;
71351;SDS011;59159;51.652;4.864;2022-10-18T10:52:24;4.20;;;1.20;;
71351;SDS011;59159;51.652;4.864;2022-10-18T10:54:51;4.43;;;1.38;;
71351;SDS011;59159;51.652;4.864;2022-10-18T10:57:22;4.97;;;1.40;;
71351;SDS011;59159;51.652;4.864;2022-10-18T10:59:52;3.53;;;0.93;;
71351;SDS011;59159;51.652;4.864;2022-10-18T11:02:25;3.35;;;1.10;;
71351;SDS011;59159;51.652;4.864;2022-10-18T11:04:55;4.07;;;0.87;;
71351;SDS011;59159;51.652;4.864;2022-10-18T11:07:40;3.00;;;0.90;;
71351;SDS011;59159;51.652;4.864;2022-10-18T11:10:07;3.80;;;1.00;;
71351;SDS011;59159;51.652;4.864;2022-10-18T11:12:44;4.43;;;1.10;;
71351;SDS011;59159;51.652;4.864;2022-10-18T11:17:38;3.80;;;1.00;;
71351;SDS011;59159;51.652;4.864;2022-10-18T11:22:45;4.17;;;0.87;;
71351;SDS011;59159;51.652;4.864;2022-10-18T11:25:15;3.20;;;0.93;;
71351;SDS011;59159;51.652;4.864;2022-10-18T11:27:52;4.40;;;1.20;;
71351;SDS011;59159;51.652;4.864;2022-10-18T11:33:00;3.63;;;1.08;;
71351;SDS011;59159;51.652;4.864;2022-10-18T11:36:03;4.22;;;0.90;;
71351;SDS011;59159;51.652;4.864;2022-10-18T11:44:01;3.65;;;1.00;;
71351;SDS011;59159;51.652;4.864;2022-10-18T12:01:33;4.22;;;1.00;;
71351;SDS011;59159;51.652;4.864;2022-10-18T12:04:23;4.23;;;0.90;;
71351;SDS011;59159;51.652;4.864;2022-10-18T12:06:47;4.03;;;1.08;;
71351;SDS011;59159;51.652;4.864;2022-10-18T12:11:48;3.88;;;0.85;;
71351;SDS011;59159;51.652;4.864;2022-10-18T12:16:42;3.75;;;0.95;;
71351;SDS011;59159;51.652;4.864;2022-10-18T12:19:14;5.07;;;1.00;;
71351;SDS011;59159;51.652;4.864;2022-10-18T12:21:42;4.67;;;1.17;;
71351;SDS011;59159;51.652;4.864;2022-10-18T12:24:11;3.85;;;0.95;;
71351;SDS011;59159;51.652;4.864;2022-10-18T12:26:40;3.53;;;1.27;;
71351;SDS011;59159;51.652;4.864;2022-10-18T12:39:16;5.53;;;1.00;;
71351;SDS011;59159;51.652;4.864;2022-10-18T12:41:46;2.55;;;0.90;;
71351;SDS011;59159;51.652;4.864;2022-10-18T12:44:27;4.75;;;1.67;;
71351;SDS011;59159;51.652;4.864;2022-10-18T12:46:56;3.03;;;1.00;;
71351;SDS011;59159;51.652;4.864;2022-10-18T12:49:36;4.07;;;1.10;;
71351;SDS011;59159;51.652;4.864;2022-10-18T12:52:13;4.07;;;1.00;;
71351;SDS011;59159;51.652;4.864;2022-10-18T12:54:59;4.50;;;1.10;;
71351;SDS011;59159;51.652;4.864;2022-10-18T12:57:25;3.88;;;1.10;;
71351;SDS011;59159;51.652;4.864;2022-10-18T13:00:50;4.53;;;0.85;;
71351;SDS011;59159;51.652;4.864;2022-10-18T13:16:20;4.53;;;0.90;;
71351;SDS011;59159;51.652;4.864;2022-10-18T13:26:28;4.40;;;0.90;;
71351;SDS011;59159;51.652;4.864;2022-10-18T13:33:53;4.78;;;0.95;;
71351;SDS011;59159;51.652;4.864;2022-10-18T13:36:23;3.60;;;1.02;;
71351;SDS011;59159;51.652;4.864;2022-10-18T13:46:23;3.70;;;0.80;;
71351;SDS011;59159;51.652;4.864;2022-10-18T13:48:50;3.38;;;0.93;;
71351;SDS011;59159;51.652;4.864;2022-10-18T13:51:33;5.28;;;1.25;;
71351;SDS011;59159;51.652;4.864;2022-10-18T13:56:32;4.00;;;0.80;;
71351;SDS011;59159;51.652;4.864;2022-10-18T13:59:17;4.03;;;0.98;;
71351;SDS011;59159;51.652;4.864;2022-10-18T14:01:56;3.65;;;0.95;;
71351;SDS011;59159;51.652;4.864;2022-10-18T14:06:52;2.75;;;0.85;;
71351;SDS011;59159;51.652;4.864;2022-10-18T14:09:23;4.95;;;0.80;;
71351;SDS011;59159;51.652;4.864;2022-10-18T14:12:00;3.27;;;0.80;;
71351;SDS011;59159;51.652;4.864;2022-10-18T14:14:36;4.97;;;1.02;;
71351;SDS011;59159;51.652;4.864;2022-10-18T14:17:07;4.80;;;0.80;;
71351;SDS011;59159;51.652;4.864;2022-10-18T14:19:45;4.70;;;0.82;;
71351;SDS011;59159;51.652;4.864;2022-10-18T14:22:15;4.67;;;0.90;;
71351;SDS011;59159;51.652;4.864;2022-10-18T14:24:43;4.63;;;0.90;;
71351;SDS011;59159;51.652;4.864;2022-10-18T14:27:12;6.72;;;1.70;;
71351;SDS011;59159;51.652;4.864;2022-10-18T14:29:40;9.50;;;1.47;;
71351;SDS011;59159;51.652;4.864;2022-10-18T14:32:07;4.90;;;1.20;;
71351;SDS011;59159;51.652;4.864;2022-10-18T14:34:33;5.63;;;1.15;;
71351;SDS011;59159;51.652;4.864;2022-10-18T14:36:59;6.27;;;1.00;;
71351;SDS011;59159;51.652;4.864;2022-10-18T14:39:25;7.18;;;1.25;;
71351;SDS011;59159;51.652;4.864;2022-10-18T14:41:54;7.15;;;1.20;;
71351;SDS011;59159;51.652;4.864;2022-10-18T14:44:24;10.02;;;1.40;;
71351;SDS011;59159;51.652;4.864;2022-10-18T14:46:52;9.07;;;1.30;;
71351;SDS011;59159;51.652;4.864;2022-10-18T14:49:23;5.50;;;1.13;;
71351;SDS011;59159;51.652;4.864;2022-10-18T14:51:49;5.65;;;1.35;;
71351;SDS011;59159;51.652;4.864;2022-10-18T14:54:20;4.83;;;1.30;;
71351;SDS011;59159;51.652;4.864;2022-10-18T14:56:47;7.75;;;1.20;;
71351;SDS011;59159;51.652;4.864;2022-10-18T14:59:15;5.95;;;1.20;;
71351;SDS011;59159;51.652;4.864;2022-10-18T15:01:49;6.17;;;1.20;;
71351;SDS011;59159;51.652;4.864;2022-10-18T15:04:16;6.93;;;1.40;;
71351;SDS011;59159;51.652;4.864;2022-10-18T15:06:42;5.53;;;1.08;;
71351;SDS011;59159;51.652;4.864;2022-10-18T15:09:08;8.82;;;2.03;;
71351;SDS011;59159;51.652;4.864;2022-10-18T15:11:36;6.03;;;1.20;;
71351;SDS011;59159;51.652;4.864;2022-10-18T15:14:03;5.15;;;1.00;;
71351;SDS011;59159;51.652;4.864;2022-10-18T15:16:33;6.68;;;1.13;;
71351;SDS011;59159;51.652;4.864;2022-10-18T15:19:00;5.20;;;1.40;;
71351;SDS011;59159;51.652;4.864;2022-10-18T15:21:27;6.00;;;1.13;;
71351;SDS011;59159;51.652;4.864;2022-10-18T15:23:53;6.65;;;0.98;;
71351;SDS011;59159;51.652;4.864;2022-10-18T15:26:20;4.57;;;0.80;;
71351;SDS011;59159;51.652;4.864;2022-10-18T15:28:48;5.88;;;1.10;;
71351;SDS011;59159;51.652;4.864;2022-10-18T15:33:52;6.32;;;1.10;;
71351;SDS011;59159;51.652;4.864;2022-10-18T15:36:27;6.13;;;0.90;;
71351;SDS011;59159;51.652;4.864;2022-10-18T15:44:08;5.90;;;1.00;;
71351;SDS011;59159;51.652;4.864;2022-10-18T15:46:43;4.63;;;1.13;;
71351;SDS011;59159;51.652;4.864;2022-10-18T15:54:40;3.53;;;0.70;;
71351;SDS011;59159;51.652;4.864;2022-10-18T15:57:09;5.40;;;1.00;;
71351;SDS011;59159;51.652;4.864;2022-10-18T15:59:36;6.60;;;0.90;;
71351;SDS011;59159;51.652;4.864;2022-10-18T16:02:11;10.67;;;1.00;;
71351;SDS011;59159;51.652;4.864;2022-10-18T16:04:38;7.28;;;1.00;;
71351;SDS011;59159;51.652;4.864;2022-10-18T16:07:04;6.18;;;1.00;;
71351;SDS011;59159;51.652;4.864;2022-10-18T16:09:30;6.43;;;0.93;;
71351;SDS011;59159;51.652;4.864;2022-10-18T16:11:58;5.13;;;0.88;;
71351;SDS011;59159;51.652;4.864;2022-10-18T16:14:24;3.75;;;0.98;;
71351;SDS011;59159;51.652;4.864;2022-10-18T16:16:52;3.33;;;1.00;;
71351;SDS011;59159;51.652;4.864;2022-10-18T16:19:18;3.67;;;0.70;;
71351;SDS011;59159;51.652;4.864;2022-10-18T16:21:48;3.67;;;0.80;;
71351;SDS011;59159;51.652;4.864;2022-10-18T16:24:14;4.25;;;0.70;;
71351;SDS011;59159;51.652;4.864;2022-10-18T16:26:40;4.70;;;0.87;;
71351;SDS011;59159;51.652;4.864;2022-10-18T16:29:09;5.40;;;0.88;;
71351;SDS011;59159;51.652;4.864;2022-10-18T16:31:37;4.70;;;0.82;;
71351;SDS011;59159;51.652;4.864;2022-10-18T16:34:04;4.07;;;1.10;;
71351;SDS011;59159;51.652;4.864;2022-10-18T16:36:31;4.45;;;0.80;;
71351;SDS011;59159;51.652;4.864;2022-10-18T16:38:58;5.82;;;0.95;;
71351;SDS011;59159;51.652;4.864;2022-10-18T16:41:26;5.67;;;0.93;;
71351;SDS011;59159;51.652;4.864;2022-10-18T16:43:52;4.55;;;0.80;;
71351;SDS011;59159;51.652;4.864;2022-10-18T16:46:19;5.15;;;1.13;;
71351;SDS011;59159;51.652;4.864;2022-10-18T16:48:46;4.07;;;1.10;;
71351;SDS011;59159;51.652;4.864;2022-10-18T16:51:13;6.23;;;1.13;;
71351;SDS011;59159;51.652;4.864;2022-10-18T16:53:39;4.57;;;0.93;;
71351;SDS011;59159;51.652;4.864;2022-10-18T16:56:05;5.03;;;0.93;;
71351;SDS011;59159;51.652;4.864;2022-10-18T16:58:36;4.23;;;0.87;;
71351;SDS011;59159;51.652;4.864;2022-10-18T17:01:02;3.28;;;0.90;;
71351;SDS011;59159;51.652;4.864;2022-10-18T17:03:28;5.75;;;0.82;;
71351;SDS011;59159;51.652;4.864;2022-10-18T17:05:54;4.13;;;0.73;;
71351;SDS011;59159;51.652;4.864;2022-10-18T17:08:23;3.10;;;0.75;;
71351;SDS011;59159;51.652;4.864;2022-10-18T17:10:49;4.68;;;1.40;;
71351;SDS011;59159;51.652;4.864;2022-10-18T17:13:17;3.72;;;1.00;;
71351;SDS011;59159;51.652;4.864;2022-10-18T17:15:43;6.63;;;1.10;;
71351;SDS011;59159;51.652;4.864;2022-10-18T17:18:10;4.90;;;1.00;;
71351;SDS011;59159;51.652;4.864;2022-10-18T17:20:37;3.85;;;1.10;;
71351;SDS011;59159;51.652;4.864;2022-10-18T17:23:03;4.33;;;1.00;;
71351;SDS011;59159;51.652;4.864;2022-10-18T17:25:29;3.08;;;0.80;;
71351;SDS011;59159;51.652;4.864;2022-10-18T17:27:55;3.75;;;0.80;;
71351;SDS011;59159;51.652;4.864;2022-10-18T17:30:21;3.87;;;0.83;;
71351;SDS011;59159;51.652;4.864;2022-10-18T17:32:47;4.07;;;0.90;;
71351;SDS011;59159;51.652;4.864;2022-10-18T17:35:13;5.43;;;0.80;;
71351;SDS011;59159;51.652;4.864;2022-10-18T17:37:39;3.70;;;0.80;;
71351;SDS011;59159;51.652;4.864;2022-10-18T17:40:05;4.47;;;0.87;;
71351;SDS011;59159;51.652;4.864;2022-10-18T17:42:32;3.97;;;0.95;;